Terminal Aerodrome Forecast
Issued by NWS

Home | Current Version | Previous Version | Text Only | Print | Product List | Glossary On
Versions: 1 2 3 4 5 6 7 8 9 10 11 12 13 14 15 16 17 18 19 20 21 22 23 24 25
000
FTUS43 KBIS 241700
TAFDIK
TAF
KDIK 241736Z 2418/2518 13016G22KT P6SM OVC014
      TEMPO 2419/2421 SCT020
     FM242100 15017G23KT P6SM SCT080
     FM250000 VRB05KT P6SM VCTS SCT050CB SCT080
     FM250300 33017G27KT P6SM SCT070 SCT090
     FM250700 31010KT P6SM SKC=

USA.gov is the U.S. government's official web portal to all federal, state and local government web resources and services.